• Join FlightAware (Why Join?)
  • Login
  • US Flag 
02:38AM EDT


 

Airport Tracker/Info


-or-


 

Live Flight TrackerFlight Track Log ✈ RPA3228 ✈ 05-Jul-2013 ✈ KBNA - KDCA

Flight Track Log - Related Links

Times and Time Zones

All times are in EDT time to prevent confusion due to time zone crossing. See the RPA3228 flight status page for this flight to view local times or setup timezone preferences in your user account.

Time Position Orientation Groundspeed Altitude Reporting Facility
EDT Latitude Longitude Course Direction KTS MPH feet Rate Location/Type
07:34AM 36.1167 -86.6833 64° Northeast 139 160 1,700  Level Nashville TRACON
07:35AM 36.0667 -86.6500 152° Southeast 231 266 4,300 3,060 Climbing Nashville TRACON
07:36AM 36.1633 -86.2836 76° East  Level FlightAware Approximate
07:36AM 36.0167 -86.5667 127° Southeast 306 352 8,200  Level Nashville TRACON
07:37AM 36.1871 -86.1572 80° East  Level FlightAware Approximate
07:38AM 36.2136 -86.0328 64° Northeast  Level FlightAware Approximate
07:38AM 36.1108 -86.4228 51° Northeast 334 384 13,800  Level Indianapolis Center
07:39AM 36.2601 -85.9165 64° Northeast  Level FlightAware Approximate
07:39AM 36.1550 -86.3111 64° Northeast 353 406 16,900  Level Indianapolis Center
07:40AM 36.1958 -86.1903 67° East 373 429 19,400 2,520 Climbing Indianapolis Center
07:41AM 36.2397 -86.0639 67° East 389 448 22,100 2,400 Climbing Indianapolis Center
07:42AM 36.2836 -85.9314 68° East 409 471 24,300 2,160 Climbing Indianapolis Center
07:43AM 36.3297 -85.7958 67° East 425 489 26,500 1,980 Climbing Indianapolis Center
07:44AM 36.3764 -85.6567 67° East 434 499 28,400 1,560 Climbing Indianapolis Center
07:45AM 36.4253 -85.5114 67° East 450 518 29,700 1,080 Climbing Indianapolis Center
07:46AM 36.4750 -85.3603 68° East 467 537 30,700 1,500 Climbing Indianapolis Center
07:47AM 36.5261 -85.2083 67° East 473 544 32,800 2,100 Climbing Indianapolis Center
07:48AM 36.5842 -85.0269 68° East 468 539 35,000 1,080 Climbing Indianapolis Center
07:49AM 36.6322 -84.8819 68° East 453 521 35,000  Level Indianapolis Center
07:50AM 36.6783 -84.7375 68° East 447 514 35,000  Level Indianapolis Center
07:51AM 36.7264 -84.5897 68° East 456 525 35,000  Level Indianapolis Center
07:52AM 36.7703 -84.4519 68° East 457 526 35,000  Level Indianapolis Center
07:53AM 36.8175 -84.3061 68° East 452 520 35,000  Level Indianapolis Center
07:54AM 36.8650 -84.1606 68° East 452 520 35,000  Level Indianapolis Center
07:55AM 36.9108 -84.0153 68° East 450 518 35,000  Level Indianapolis Center
07:56AM 36.9567 -83.8669 69° East 456 525 35,000  Level Indianapolis Center
07:57AM 37.0061 -83.7197 67° East 461 531 35,000  Level Indianapolis Center
07:58AM 37.0522 -83.5700 69° East 467 537 35,000  Level Indianapolis Center
07:59AM 37.0992 -83.4181 69° East 469 540 35,000  Level Indianapolis Center
08:00AM 37.1528 -83.2439 69° East 461 531 35,000  Level Indianapolis Center
08:01AM 37.1994 -83.0933 69° East 459 528 35,000  Level Indianapolis Center
08:02AM 37.2447 -82.9408 70° East 461 531 35,000  Level Indianapolis Center
08:03AM 37.2903 -82.7917 69° East 456 525 35,000  Level Indianapolis Center
08:04AM 37.3372 -82.6425 68° East 456 525 35,000  Level Indianapolis Center
08:05AM 37.3811 -82.4956 69° East 450 518 35,000  Level Indianapolis Center
08:06AM 37.4250 -82.3478 69° East 450 518 35,000  Level Indianapolis Center
08:07AM 37.4689 -82.2019 69° East 447 514 35,000  Level Indianapolis Center
08:08AM 37.5111 -82.0561 70° East 443 510 35,000  Level Indianapolis Center
08:09AM 37.5544 -81.9106 69° East 443 510 35,000  Level Indianapolis Center
08:10AM 37.5961 -81.7653 70° East 441 507 35,000  Level Indianapolis Center
08:11AM 37.6389 -81.6203 70° East 440 506 35,000  Level Indianapolis Center
08:12AM 37.6819 -81.4669 70° East 442 509 35,000  Level Indianapolis Center
08:13AM 37.7233 -81.3261 70° East 440 506 35,000  Level Indianapolis Center
08:14AM 37.7628 -81.1850 70° East 439 505 35,000  Level Indianapolis Center
08:15AM 37.8086 -81.0444 68° East 444 511 35,000  Level Indianapolis Center
08:16AM 37.8644 -80.8847 66° East 441 507 35,000  Level Indianapolis Center
08:17AM 37.9142 -80.7461 66° East 436 502 35,000  Level Indianapolis Center
08:18AM 37.9631 -80.6042 66° East 440 506 35,000  Level Indianapolis Center
08:19AM 37.9922 -80.5297 64° Northeast 440 506 35,000  Level Washington Center
08:20AM 38.0419 -80.3881 66° East 435 501 35,000  Level Washington Center
08:21AM 38.0933 -80.2489 65° Northeast 435 501 35,000  Level Washington Center
08:22AM 38.1425 -80.1092 66° East 435 501 35,000  Level Washington Center
08:23AM 38.1867 -79.9825 66° East 435 501 35,000  Level Washington Center
08:24AM 38.2356 -79.8425 66° East 435 501 35,000  Level Washington Center
08:25AM 38.2864 -79.7000 66° East 435 501 35,000  Level Washington Center
08:26AM 38.3369 -79.5625 65° Northeast 435 501 35,000 -480 Level Washington Center
08:27AM 38.3833 -79.4192 68° East 435 501 34,100 -1,860 Descending Washington Center
08:28AM 38.4322 -79.2547 69° East 435 501 31,300 -2,580 Descending Washington Center
08:29AM 38.4597 -79.1022 77° East 435 501 29,000 -2,160 Descending Washington Center
08:30AM 38.4892 -78.9444 77° East 440 506 27,000 -1,860 Descending Washington Center
08:31AM 38.5078 -78.8019 80° East 451 519 25,300 -2,100 Descending Washington Center
08:32AM 38.5303 -78.6544 79° East 440 506 23,000 -2,220 Descending Washington Center
08:33AM 38.5528 -78.5119 79° East 423 487 21,000 -2,040 Descending Washington Center
08:34AM 38.5769 -78.3722 77° East 410 472 18,900 -1,980 Descending Washington Center
08:35AM 38.6194 -78.2436 67° East 390 449 17,100 -1,980 Descending Washington Center
08:36AM 38.6658 -78.1203 64° Northeast 384 442 15,100 -2,040 Descending Washington Center
08:37AM 38.7100 -78.0019 64° Northeast 371 427 13,100 -1,920 Descending Washington Center
08:38AM 38.7517 -77.8889 65° Northeast 361 415 11,300 -1,080 Descending Washington Center
08:39AM 38.7914 -77.7783 65° Northeast 350 403 11,000 -300 Descending Washington Center
08:40AM 38.8411 -77.6706 59° Northeast 326 375 10,700 -840 Descending Washington Center
08:41AM 38.8903 -77.5997 48° Northeast 301 346 9,400 -1,500 Descending Washington Center
08:42AM 38.9400 -77.5053 56° Northeast 291 335 7,800 -1,740 Descending Washington Center
08:43AM 38.9667 -77.3667 76° East 287 330 5,500 -1,500 Descending Potomac TRACON
08:44AM 38.9833 -77.2833 76° East 262 302 4,300 -1,260 Descending Potomac TRACON
08:45AM 38.9667 -77.2000 104° East 240 276 3,000 -840 Descending Potomac TRACON
08:46AM 38.9500 -77.1333 108° East 198 228 2,700 -900 Descending Potomac TRACON
08:47AM 38.9167 -77.0833 131° Southeast 171 197 1,400 -1,200 Descending Potomac TRACON
08:48AM 38.8833 -77.0667 159° South 127 146 500 -900 Descending Potomac TRACON